Hermantown, Minnesota
Current Conditions -  °F | °C
As of 2:55 PM on Friday 19 Dec 2014 (Local Time) from KDLH Reporting Station
Light Snow Light Snow  
Wind Chill: 15°   Ceiling: 900
Heat Index: 24°   Visibility: 7mi
Dew Point: 19°   Wind: 8mph
Humidity: 81%   Direction: 150°SSE
Pressure: 30.15"   Gusts: NA
Location:  46.8401°N, 92.218°W
Report Text: KDLH 192055Z 15007KT 7SM -SN OVC009 M04/M07 A3015 RMK AO2 CIG 007V012 SLP237 P0000 60000 T10441072 58005
Loading
Personal Weather Stations






























Interactive Weather Map New forecast layout! Learn more

10-Day Weather Forecast

Advertisements
Track Severe Weather on mobile